sensor_id;sensor_type;location;lat;lon;timestamp;pressure;altitude;pressure_sealevel;temperature;humidity
9905;BME280;4991;43.566;27.820;2022-07-09T00:00:06;98446.56;;;19.85;100.00
9905;BME280;4991;43.566;27.820;2022-07-09T00:02:32;98448.94;;;19.83;100.00
9905;BME280;4991;43.566;27.820;2022-07-09T00:05:00;98437.06;;;19.82;100.00
9905;BME280;4991;43.566;27.820;2022-07-09T00:07:26;98445.41;;;19.86;100.00
9905;BME280;4991;43.566;27.820;2022-07-09T00:09:52;98434.31;;;19.82;100.00
9905;BME280;4991;43.566;27.820;2022-07-09T00:12:18;98433.44;;;19.75;100.00
9905;BME280;4991;43.566;27.820;2022-07-09T00:14:44;98425.66;;;19.58;100.00
9905;BME280;4991;43.566;27.820;2022-07-09T00:17:09;98431.13;;;19.54;100.00
9905;BME280;4991;43.566;27.820;2022-07-09T00:19:35;98442.44;;;19.46;100.00
9905;BME280;4991;43.566;27.820;2022-07-09T00:22:01;98440.03;;;19.44;100.00
9905;BME280;4991;43.566;27.820;2022-07-09T00:24:27;98438.03;;;19.41;100.00
9905;BME280;4991;43.566;27.820;2022-07-09T00:26:53;98429.19;;;19.32;100.00
9905;BME280;4991;43.566;27.820;2022-07-09T00:29:18;98437.16;;;19.37;100.00
9905;BME280;4991;43.566;27.820;2022-07-09T00:31:44;98441.31;;;19.27;100.00
9905;BME280;4991;43.566;27.820;2022-07-09T00:34:12;98441.63;;;19.22;100.00
9905;BME280;4991;43.566;27.820;2022-07-09T00:36:37;98437.22;;;19.18;100.00
9905;BME280;4991;43.566;27.820;2022-07-09T00:39:03;98436.78;;;19.16;100.00
9905;BME280;4991;43.566;27.820;2022-07-09T00:41:29;98435.13;;;19.11;100.00
9905;BME280;4991;43.566;27.820;2022-07-09T00:43:54;98433.13;;;19.08;100.00
9905;BME280;4991;43.566;27.820;2022-07-09T00:46:20;98427.63;;;19.12;100.00
9905;BME280;4991;43.566;27.820;2022-07-09T00:48:46;98427.53;;;19.05;100.00
9905;BME280;4991;43.566;27.820;2022-07-09T00:51:12;98436.22;;;19.07;100.00
9905;BME280;4991;43.566;27.820;2022-07-09T00:53:40;98427.16;;;19.06;100.00
9905;BME280;4991;43.566;27.820;2022-07-09T00:56:06;98431.13;;;19.09;100.00
9905;BME280;4991;43.566;27.820;2022-07-09T00:58:34;98432.31;;;19.08;100.00
9905;BME280;4991;43.566;27.820;2022-07-09T01:01:01;98432.06;;;19.16;100.00
9905;BME280;4991;43.566;27.820;2022-07-09T01:03:27;98427.22;;;19.10;100.00
9905;BME280;4991;43.566;27.820;2022-07-09T01:05:53;98426.41;;;19.09;100.00
9905;BME280;4991;43.566;27.820;2022-07-09T01:08:21;98420.03;;;19.05;100.00
9905;BME280;4991;43.566;27.820;2022-07-09T01:10:47;98426.41;;;19.09;100.00
9905;BME280;4991;43.566;27.820;2022-07-09T01:13:14;98426.41;;;19.09;100.00
9905;BME280;4991;43.566;27.820;2022-07-09T01:15:40;98429.78;;;18.99;100.00
9905;BME280;4991;43.566;27.820;2022-07-09T01:18:10;98434.50;;;18.99;100.00
9905;BME280;4991;43.566;27.820;2022-07-09T01:20:35;98428.81;;;19.11;100.00
9905;BME280;4991;43.566;27.820;2022-07-09T01:23:01;98433.91;;;19.09;100.00
9905;BME280;4991;43.566;27.820;2022-07-09T01:25:40;98432.63;;;19.03;100.00
9905;BME280;4991;43.566;27.820;2022-07-09T01:28:08;98431.81;;;19.02;100.00
9905;BME280;4991;43.566;27.820;2022-07-09T01:30:36;98442.78;;;18.99;100.00
9905;BME280;4991;43.566;27.820;2022-07-09T01:33:02;98443.09;;;18.94;100.00
9905;BME280;4991;43.566;27.820;2022-07-09T01:35:28;98445.09;;;18.97;100.00
9905;BME280;4991;43.566;27.820;2022-07-09T01:37:54;98439.59;;;18.97;100.00
9905;BME280;4991;43.566;27.820;2022-07-09T01:40:20;98450.94;;;18.92;100.00
9905;BME280;4991;43.566;27.820;2022-07-09T01:42:46;98445.38;;;18.88;100.00
9905;BME280;4991;43.566;27.820;2022-07-09T01:45:13;98445.91;;;18.97;100.00
9905;BME280;4991;43.566;27.820;2022-07-09T01:47:38;98447.81;;;18.93;100.00
9905;BME280;4991;43.566;27.820;2022-07-09T01:50:05;98443.75;;;18.87;100.00
9905;BME280;4991;43.566;27.820;2022-07-09T01:52:32;98448.00;;;18.81;100.00
9905;BME280;4991;43.566;27.820;2022-07-09T01:54:58;98440.44;;;18.78;100.00
9905;BME280;4991;43.566;27.820;2022-07-09T01:57:23;98441.59;;;18.77;100.00
9905;BME280;4991;43.566;27.820;2022-07-09T01:59:49;98433.63;;;18.72;100.00
9905;BME280;4991;43.566;27.820;2022-07-09T02:02:15;98444.53;;;18.65;100.00
9905;BME280;4991;43.566;27.820;2022-07-09T02:04:40;98445.31;;;18.66;100.00
9905;BME280;4991;43.566;27.820;2022-07-09T02:07:06;98432.25;;;18.63;100.00
9905;BME280;4991;43.566;27.820;2022-07-09T02:09:31;98437.28;;;18.57;100.00
9905;BME280;4991;43.566;27.820;2022-07-09T02:11:57;98449.53;;;18.60;100.00
9905;BME280;4991;43.566;27.820;2022-07-09T02:14:23;98443.06;;;18.52;100.00
9905;BME280;4991;43.566;27.820;2022-07-09T02:16:48;98437.56;;;18.52;100.00
9905;BME280;4991;43.566;27.820;2022-07-09T02:19:14;98424.81;;;18.44;100.00
9905;BME280;4991;43.566;27.820;2022-07-09T02:21:40;98442.59;;;18.47;100.00
9905;BME280;4991;43.566;27.820;2022-07-09T02:24:06;98439.84;;;18.47;100.00
9905;BME280;4991;43.566;27.820;2022-07-09T02:26:32;98440.84;;;18.39;100.00
9905;BME280;4991;43.566;27.820;2022-07-09T02:28:59;98446.00;;;18.40;100.00
9905;BME280;4991;43.566;27.820;2022-07-09T02:31:25;98438.06;;;18.39;100.00
9905;BME280;4991;43.566;27.820;2022-07-09T02:33:52;98441.53;;;18.36;100.00
9905;BME280;4991;43.566;27.820;2022-07-09T02:36:19;98431.69;;;18.35;100.00
9905;BME280;4991;43.566;27.820;2022-07-09T02:38:45;98438.41;;;18.37;100.00
9905;BME280;4991;43.566;27.820;2022-07-09T02:41:10;98442.63;;;18.31;100.00
9905;BME280;4991;43.566;27.820;2022-07-09T02:43:36;98446.69;;;18.37;100.00
9905;BME280;4991;43.566;27.820;2022-07-09T02:46:02;98443.91;;;18.37;100.00
9905;BME280;4991;43.566;27.820;2022-07-09T02:48:29;98449.75;;;18.32;100.00
9905;BME280;4991;43.566;27.820;2022-07-09T02:50:55;98443.44;;;18.32;100.00
9905;BME280;4991;43.566;27.820;2022-07-09T02:53:21;98447.00;;;18.32;100.00
9905;BME280;4991;43.566;27.820;2022-07-09T02:55:47;98445.09;;;18.36;100.00
9905;BME280;4991;43.566;27.820;2022-07-09T02:58:13;98446.28;;;18.35;100.00
9905;BME280;4991;43.566;27.820;2022-07-09T03:00:39;98449.19;;;18.42;100.00
9905;BME280;4991;43.566;27.820;2022-07-09T03:03:06;98440.50;;;18.40;100.00
9905;BME280;4991;43.566;27.820;2022-07-09T03:05:32;98439.31;;;18.41;100.00
9905;BME280;4991;43.566;27.820;2022-07-09T03:07:57;98440.97;;;18.46;100.00
9905;BME280;4991;43.566;27.820;2022-07-09T03:10:23;98438.22;;;18.46;100.00
9905;BME280;4991;43.566;27.820;2022-07-09T03:12:49;98443.66;;;18.42;100.00
9905;BME280;4991;43.566;27.820;2022-07-09T03:15:15;98445.91;;;18.37;100.00
9905;BME280;4991;43.566;27.820;2022-07-09T03:17:45;98443.50;;;18.35;100.00
9905;BME280;4991;43.566;27.820;2022-07-09T03:20:12;98446.13;;;18.28;100.00
9905;BME280;4991;43.566;27.820;2022-07-09T03:22:38;98431.81;;;18.23;100.00
9905;BME280;4991;43.566;27.820;2022-07-09T03:25:05;98435.91;;;18.29;100.00
9905;BME280;4991;43.566;27.820;2022-07-09T03:27:31;98439.13;;;18.34;100.00
9905;BME280;4991;43.566;27.820;2022-07-09T03:29:57;98434.19;;;18.40;100.00
9905;BME280;4991;43.566;27.820;2022-07-09T03:32:23;98434.25;;;18.43;100.00
9905;BME280;4991;43.566;27.820;2022-07-09T03:34:49;98430.75;;;18.46;100.00
9905;BME280;4991;43.566;27.820;2022-07-09T03:37:15;98427.72;;;18.51;100.00
9905;BME280;4991;43.566;27.820;2022-07-09T03:39:40;98421.69;;;18.46;100.00
9905;BME280;4991;43.566;27.820;2022-07-09T03:42:06;98433.16;;;18.48;100.00
9905;BME280;4991;43.566;27.820;2022-07-09T03:44:33;98429.59;;;18.47;100.00
9905;BME280;4991;43.566;27.820;2022-07-09T03:46:59;98434.63;;;18.42;100.00
9905;BME280;4991;43.566;27.820;2022-07-09T03:49:25;98430.31;;;18.44;100.00
9905;BME280;4991;43.566;27.820;2022-07-09T03:51:50;98437.94;;;18.51;100.00
9905;BME280;4991;43.566;27.820;2022-07-09T03:54:16;98430.03;;;18.49;100.00
9905;BME280;4991;43.566;27.820;2022-07-09T03:56:42;98435.69;;;18.56;100.00
9905;BME280;4991;43.566;27.820;2022-07-09T03:59:07;98445.91;;;18.56;100.00
9905;BME280;4991;43.566;27.820;2022-07-09T04:01:33;98443.66;;;18.61;100.00
9905;BME280;4991;43.566;27.820;2022-07-09T04:03:59;98444.94;;;18.67;100.00
9905;BME280;4991;43.566;27.820;2022-07-09T04:06:25;98449.50;;;18.79;100.00
9905;BME280;4991;43.566;27.820;2022-07-09T04:08:51;98444.00;;;18.79;100.00
9905;BME280;4991;43.566;27.820;2022-07-09T04:11:16;98445.66;;;18.83;100.00
9905;BME280;4991;43.566;27.820;2022-07-09T04:13:42;98446.22;;;18.92;100.00
9905;BME280;4991;43.566;27.820;2022-07-09T04:16:08;98449.41;;;18.94;100.00
9905;BME280;4991;43.566;27.820;2022-07-09T04:18:34;98452.91;;;18.91;100.00
9905;BME280;4991;43.566;27.820;2022-07-09T04:21:00;98449.84;;;18.96;100.00
9905;BME280;4991;43.566;27.820;2022-07-09T04:23:27;98453.81;;;18.99;100.00
9905;BME280;4991;43.566;27.820;2022-07-09T04:25:53;98449.09;;;18.99;100.00
9905;BME280;4991;43.566;27.820;2022-07-09T04:28:19;98450.81;;;19.07;100.00
9905;BME280;4991;43.566;27.820;2022-07-09T04:30:48;98458.38;;;19.10;100.00
9905;BME280;4991;43.566;27.820;2022-07-09T04:33:14;98457.75;;;19.20;100.00
9905;BME280;4991;43.566;27.820;2022-07-09T04:35:40;98458.25;;;19.26;100.00
9905;BME280;4991;43.566;27.820;2022-07-09T04:38:05;98455.72;;;19.37;100.00
9905;BME280;4991;43.566;27.820;2022-07-09T04:40:31;98449.53;;;19.47;100.00
9905;BME280;4991;43.566;27.820;2022-07-09T04:42:57;98451.66;;;19.53;100.00
9905;BME280;4991;43.566;27.820;2022-07-09T04:45:23;98453.28;;;19.58;100.00
9905;BME280;4991;43.566;27.820;2022-07-09T04:47:48;98455.72;;;19.63;100.00
9905;BME280;4991;43.566;27.820;2022-07-09T04:50:14;98460.63;;;19.73;100.00
9905;BME280;4991;43.566;27.820;2022-07-09T04:52:40;98458.63;;;19.73;100.00
9905;BME280;4991;43.566;27.820;2022-07-09T04:55:07;98451.97;;;19.74;100.00
9905;BME280;4991;43.566;27.820;2022-07-09T04:57:33;98459.94;;;19.79;100.00
9905;BME280;4991;43.566;27.820;2022-07-09T05:00:03;98460.06;;;19.90;100.00
9905;BME280;4991;43.566;27.820;2022-07-09T05:02:29;98463.25;;;19.92;100.00
9905;BME280;4991;43.566;27.820;2022-07-09T05:04:54;98470.09;;;19.98;100.00
9905;BME280;4991;43.566;27.820;2022-07-09T05:07:20;98460.59;;;19.99;100.00
9905;BME280;4991;43.566;27.820;2022-07-09T05:09:46;98472.56;;;20.06;100.00
9905;BME280;4991;43.566;27.820;2022-07-09T05:12:11;98471.50;;;20.14;100.00
9905;BME280;4991;43.566;27.820;2022-07-09T05:14:37;98464.13;;;20.22;100.00
9905;BME280;4991;43.566;27.820;2022-07-09T05:17:04;98465.78;;;20.30;100.00
9905;BME280;4991;43.566;27.820;2022-07-09T05:19:32;98475.81;;;20.41;100.00
9905;BME280;4991;43.566;27.820;2022-07-09T05:21:58;98459.69;;;20.47;100.00
9905;BME280;4991;43.566;27.820;2022-07-09T05:24:23;98453.84;;;20.52;100.00
9905;BME280;4991;43.566;27.820;2022-07-09T05:26:50;98453.41;;;20.50;100.00
9905;BME280;4991;43.566;27.820;2022-07-09T05:29:15;98456.75;;;20.66;100.00
9905;BME280;4991;43.566;27.820;2022-07-09T05:31:42;98451.69;;;20.72;100.00
9905;BME280;4991;43.566;27.820;2022-07-09T05:34:08;98443.47;;;20.79;100.00
9905;BME280;4991;43.566;27.820;2022-07-09T05:36:34;98456.13;;;20.80;100.00
9905;BME280;4991;43.566;27.820;2022-07-09T05:39:00;98455.00;;;20.88;100.00
9905;BME280;4991;43.566;27.820;2022-07-09T05:41:26;98442.41;;;20.90;100.00
9905;BME280;4991;43.566;27.820;2022-07-09T05:43:53;98444.50;;;21.00;100.00
9905;BME280;4991;43.566;27.820;2022-07-09T05:46:19;98446.56;;;21.07;100.00
9905;BME280;4991;43.566;27.820;2022-07-09T05:48:45;98446.66;;;21.17;100.00
9905;BME280;4991;43.566;27.820;2022-07-09T05:51:11;98449.78;;;21.16;100.00
9905;BME280;4991;43.566;27.820;2022-07-09T05:53:36;98445.19;;;21.30;100.00
9905;BME280;4991;43.566;27.820;2022-07-09T05:56:02;98457.50;;;21.36;100.00
9905;BME280;4991;43.566;27.820;2022-07-09T05:58:28;98450.88;;;21.48;100.00
9905;BME280;4991;43.566;27.820;2022-07-09T06:00:54;98446.19;;;21.55;100.00
9905;BME280;4991;43.566;27.820;2022-07-09T06:03:20;98440.69;;;21.62;100.00
9905;BME280;4991;43.566;27.820;2022-07-09T06:05:46;98449.03;;;21.66;100.00
9905;BME280;4991;43.566;27.820;2022-07-09T06:08:11;98444.03;;;21.79;100.00
9905;BME280;4991;43.566;27.820;2022-07-09T06:10:37;98445.25;;;21.88;100.00
9905;BME280;4991;43.566;27.820;2022-07-09T06:13:03;98439.34;;;21.93;100.00
9905;BME280;4991;43.566;27.820;2022-07-09T06:15:29;98446.50;;;21.98;100.00
9905;BME280;4991;43.566;27.820;2022-07-09T06:17:54;98435.47;;;22.05;100.00
9905;BME280;4991;43.566;27.820;2022-07-09T06:20:20;98430.72;;;22.12;100.00
9905;BME280;4991;43.566;27.820;2022-07-09T06:22:46;98436.31;;;22.19;100.00
9905;BME280;4991;43.566;27.820;2022-07-09T06:25:12;98429.59;;;22.24;100.00
9905;BME280;4991;43.566;27.820;2022-07-09T06:27:38;98427.69;;;22.42;100.00
9905;BME280;4991;43.566;27.820;2022-07-09T06:30:06;98425.69;;;22.39;100.00
9905;BME280;4991;43.566;27.820;2022-07-09T06:32:32;98417.38;;;22.39;100.00
9905;BME280;4991;43.566;27.820;2022-07-09T06:34:58;98432.50;;;22.45;100.00
9905;BME280;4991;43.566;27.820;2022-07-09T06:37:25;98420.59;;;22.44;100.00
9905;BME280;4991;43.566;27.820;2022-07-09T06:39:50;98419.06;;;22.57;100.00
9905;BME280;4991;43.566;27.820;2022-07-09T06:42:20;98428.22;;;22.65;100.00
9905;BME280;4991;43.566;27.820;2022-07-09T06:44:47;98419.50;;;22.63;100.00
9905;BME280;4991;43.566;27.820;2022-07-09T06:47:12;98416.72;;;22.73;100.00
9905;BME280;4991;43.566;27.820;2022-07-09T06:49:38;98418.34;;;22.81;100.00
9905;BME280;4991;43.566;27.820;2022-07-09T06:52:04;98416.38;;;22.89;100.00
9905;BME280;4991;43.566;27.820;2022-07-09T06:54:30;98413.59;;;22.92;100.00
9905;BME280;4991;43.566;27.820;2022-07-09T06:56:56;98402.13;;;23.01;100.00
9905;BME280;4991;43.566;27.820;2022-07-09T06:59:25;98413.63;;;23.14;100.00
9905;BME280;4991;43.566;27.820;2022-07-09T07:01:50;98399.75;;;23.17;100.00
9905;BME280;4991;43.566;27.820;2022-07-09T07:04:18;98387.47;;;23.29;100.00
9905;BME280;4991;43.566;27.820;2022-07-09T07:06:46;98401.72;;;23.20;100.00
9905;BME280;4991;43.566;27.820;2022-07-09T07:09:15;98398.56;;;23.11;100.00
9905;BME280;4991;43.566;27.820;2022-07-09T07:11:45;98409.28;;;23.20;100.00
9905;BME280;4991;43.566;27.820;2022-07-09T07:14:11;98399.75;;;23.17;100.00
9905;BME280;4991;43.566;27.820;2022-07-09T07:16:37;98404.09;;;23.25;100.00
9905;BME280;4991;43.566;27.820;2022-07-09T07:19:02;98397.00;;;23.38;100.00
9905;BME280;4991;43.566;27.820;2022-07-09T07:21:28;98398.97;;;23.45;100.00
9905;BME280;4991;43.566;27.820;2022-07-09T07:23:54;98406.50;;;23.51;100.00
9905;BME280;4991;43.566;27.820;2022-07-09T07:26:19;98408.09;;;23.45;100.00
9905;BME280;4991;43.566;27.820;2022-07-09T07:28:45;98400.16;;;23.44;100.00
9905;BME280;4991;43.566;27.820;2022-07-09T07:31:10;98404.16;;;23.46;100.00
9905;BME280;4991;43.566;27.820;2022-07-09T07:33:36;98405.31;;;23.42;100.00
9905;BME280;4991;43.566;27.820;2022-07-09T07:36:02;98403.31;;;23.60;100.00
9905;BME280;4991;43.566;27.820;2022-07-09T07:38:28;98413.25;;;23.68;100.00
9905;BME280;4991;43.566;27.820;2022-07-09T07:40:54;98410.06;;;23.73;100.00
9905;BME280;4991;43.566;27.820;2022-07-09T07:43:20;98412.06;;;23.79;100.00
9905;BME280;4991;43.566;27.820;2022-07-09T07:45:46;98407.28;;;23.76;100.00
9905;BME280;4991;43.566;27.820;2022-07-09T07:48:11;98420.41;;;23.79;100.00
9905;BME280;4991;43.566;27.820;2022-07-09T07:50:37;98414.38;;;23.91;100.00
9905;BME280;4991;43.566;27.820;2022-07-09T07:53:07;98408.84;;;24.05;100.00
9905;BME280;4991;43.566;27.820;2022-07-09T07:55:34;98412.81;;;23.94;100.00
9905;BME280;4991;43.566;27.820;2022-07-09T07:58:00;98419.97;;;23.98;100.00
9905;BME280;4991;43.566;27.820;2022-07-09T08:00:26;98410.44;;;23.99;100.00
9905;BME280;4991;43.566;27.820;2022-07-09T08:02:51;98409.66;;;24.02;100.00
9905;BME280;4991;43.566;27.820;2022-07-09T08:05:17;98415.91;;;24.27;100.00
9905;BME280;4991;43.566;27.820;2022-07-09T08:07:42;98414.72;;;24.32;100.00
9905;BME280;4991;43.566;27.820;2022-07-09T08:10:09;98401.94;;;24.42;100.00
9905;BME280;4991;43.566;27.820;2022-07-09T08:12:35;98405.94;;;24.41;100.00
9905;BME280;4991;43.566;27.820;2022-07-09T08:15:01;98409.47;;;24.45;100.00
9905;BME280;4991;43.566;27.820;2022-07-09T08:17:28;98398.72;;;24.47;100.00
9905;BME280;4991;43.566;27.820;2022-07-09T08:19:56;98402.34;;;24.44;100.00
9905;BME280;4991;43.566;27.820;2022-07-09T08:22:21;98404.28;;;24.50;100.00
9905;BME280;4991;43.566;27.820;2022-07-09T08:24:47;98397.16;;;24.42;100.00
9905;BME280;4991;43.566;27.820;2022-07-09T08:27:12;98394.72;;;24.55;100.00
9905;BME280;4991;43.566;27.820;2022-07-09T08:29:38;98392.66;;;24.66;100.00
9905;BME280;4991;43.566;27.820;2022-07-09T08:32:04;98391.47;;;24.67;100.00
9905;BME280;4991;43.566;27.820;2022-07-09T08:34:30;98393.81;;;24.79;100.00
9905;BME280;4991;43.566;27.820;2022-07-09T08:36:56;98397.06;;;24.70;100.00
9905;BME280;4991;43.566;27.820;2022-07-09T08:39:21;98392.69;;;24.62;100.00
9905;BME280;4991;43.566;27.820;2022-07-09T08:41:47;98392.66;;;24.66;100.00
9905;BME280;4991;43.566;27.820;2022-07-09T08:44:13;98387.09;;;24.69;100.00
9905;BME280;4991;43.566;27.820;2022-07-09T08:46:40;98379.53;;;24.73;100.00
9905;BME280;4991;43.566;27.820;2022-07-09T08:49:09;98384.56;;;24.92;100.00
9905;BME280;4991;43.566;27.820;2022-07-09T08:51:35;98387.41;;;24.89;100.00
9905;BME280;4991;43.566;27.820;2022-07-09T08:54:04;98382.69;;;24.75;100.00
9905;BME280;4991;43.566;27.820;2022-07-09T08:56:30;98390.97;;;24.86;100.00
9905;BME280;4991;43.566;27.820;2022-07-09T08:58:56;98382.56;;;24.96;100.00
9905;BME280;4991;43.566;27.820;2022-07-09T09:01:21;98385.03;;;24.84;100.00
9905;BME280;4991;43.566;27.820;2022-07-09T09:03:47;98382.63;;;24.86;100.00
9905;BME280;4991;43.566;27.820;2022-07-09T09:06:13;98375.81;;;24.94;100.00
9905;BME280;4991;43.566;27.820;2022-07-09T09:08:43;98375.34;;;25.02;100.00
9905;BME280;4991;43.566;27.820;2022-07-09T09:11:15;98375.66;;;25.15;100.00
9905;BME280;4991;43.566;27.820;2022-07-09T09:13:42;98374.81;;;25.21;100.00
9905;BME280;4991;43.566;27.820;2022-07-09T09:16:10;98379.16;;;25.22;100.00
9905;BME280;4991;43.566;27.820;2022-07-09T09:18:47;98377.91;;;25.30;100.00
9905;BME280;4991;43.566;27.820;2022-07-09T09:21:14;98385.94;;;25.25;100.00
9905;BME280;4991;43.566;27.820;2022-07-09T09:23:46;98379.91;;;25.30;100.00
9905;BME280;4991;43.566;27.820;2022-07-09T09:26:14;98365.97;;;25.30;100.00
9905;BME280;4991;43.566;27.820;2022-07-09T09:31:18;98374.53;;;25.57;100.00
9905;BME280;4991;43.566;27.820;2022-07-09T09:33:44;98372.59;;;25.50;100.00
9905;BME280;4991;43.566;27.820;2022-07-09T09:36:11;98370.53;;;25.58;100.00
9905;BME280;4991;43.566;27.820;2022-07-09T09:38:37;98365.59;;;25.72;100.00
9905;BME280;4991;43.566;27.820;2022-07-09T09:41:03;98361.94;;;25.79;100.00
9905;BME280;4991;43.566;27.820;2022-07-09T09:43:30;98366.31;;;25.80;100.00
9905;BME280;4991;43.566;27.820;2022-07-09T09:45:58;98364.97;;;25.95;100.00
9905;BME280;4991;43.566;27.820;2022-07-09T09:48:24;98368.41;;;26.09;100.00
9905;BME280;4991;43.566;27.820;2022-07-09T09:50:51;98360.78;;;26.43;100.00
9905;BME280;4991;43.566;27.820;2022-07-09T09:53:21;98361.25;;;27.91;100.00
9905;BME280;4991;43.566;27.820;2022-07-09T09:55:49;98360.72;;;28.74;100.00
9905;BME280;4991;43.566;27.820;2022-07-09T09:58:17;98352.03;;;29.37;95.06
9905;BME280;4991;43.566;27.820;2022-07-09T10:00:43;98342.00;;;29.03;94.69
9905;BME280;4991;43.566;27.820;2022-07-09T10:03:11;98362.28;;;29.43;93.47
9905;BME280;4991;43.566;27.820;2022-07-09T10:05:37;98357.19;;;29.70;87.87
9905;BME280;4991;43.566;27.820;2022-07-09T10:08:03;98349.84;;;30.46;85.06
9905;BME280;4991;43.566;27.820;2022-07-09T10:10:29;98347.81;;;30.34;82.82
9905;BME280;4991;43.566;27.820;2022-07-09T10:12:55;98356.63;;;30.74;80.40
9905;BME280;4991;43.566;27.820;2022-07-09T10:15:24;98343.94;;;31.07;78.35
9905;BME280;4991;43.566;27.820;2022-07-09T10:17:52;98352.38;;;31.07;76.48
9905;BME280;4991;43.566;27.820;2022-07-09T10:20:29;98354.69;;;30.46;76.53
9905;BME280;4991;43.566;27.820;2022-07-09T10:22:56;98350.91;;;30.77;75.92
9905;BME280;4991;43.566;27.820;2022-07-09T10:25:37;98341.59;;;31.05;73.96
9905;BME280;4991;43.566;27.820;2022-07-09T10:28:14;98332.78;;;31.28;73.64
9905;BME280;4991;43.566;27.820;2022-07-09T10:30:42;98334.41;;;32.19;70.60
9905;BME280;4991;43.566;27.820;2022-07-09T10:33:11;98341.59;;;31.05;71.52
9905;BME280;4991;43.566;27.820;2022-07-09T10:35:48;98338.63;;;31.21;71.37
9905;BME280;4991;43.566;27.820;2022-07-09T10:38:17;98342.13;;;31.25;69.70
9905;BME280;4991;43.566;27.820;2022-07-09T10:40:57;98335.94;;;30.93;71.49
9905;BME280;4991;43.566;27.820;2022-07-09T10:43:50;98345.34;;;31.49;69.44
9905;BME280;4991;43.566;27.820;2022-07-09T10:46:19;98327.16;;;31.28;71.15
9905;BME280;4991;43.566;27.820;2022-07-09T10:48:46;98333.41;;;30.32;74.43
9905;BME280;4991;43.566;27.820;2022-07-09T10:51:18;98329.28;;;30.08;78.82
9905;BME280;4991;43.566;27.820;2022-07-09T10:53:45;98333.09;;;29.25;80.42
9905;BME280;4991;43.566;27.820;2022-07-09T10:56:22;98324.75;;;29.37;80.72
9905;BME280;4991;43.566;27.820;2022-07-09T10:58:50;98315.16;;;29.67;79.98
9905;BME280;4991;43.566;27.820;2022-07-09T11:01:21;98332.47;;;29.17;82.82
9905;BME280;4991;43.566;27.820;2022-07-09T11:03:49;98333.25;;;29.01;84.10
9905;BME280;4991;43.566;27.820;2022-07-09T11:06:16;98328.81;;;29.36;83.03
9905;BME280;4991;43.566;27.820;2022-07-09T11:08:42;98314.53;;;29.75;79.79
9905;BME280;4991;43.566;27.820;2022-07-09T11:11:09;98319.44;;;30.00;78.81
9905;BME280;4991;43.566;27.820;2022-07-09T11:13:35;98313.00;;;30.69;75.33
9905;BME280;4991;43.566;27.820;2022-07-09T11:16:01;98320.31;;;31.98;69.89
9905;BME280;4991;43.566;27.820;2022-07-09T11:18:28;98318.81;;;32.49;68.14
9905;BME280;4991;43.566;27.820;2022-07-09T11:20:55;98310.78;;;33.09;61.97
9905;BME280;4991;43.566;27.820;2022-07-09T11:23:21;98314.91;;;32.46;60.79
9905;BME280;4991;43.566;27.820;2022-07-09T11:25:46;98315.78;;;32.65;61.48
9905;BME280;4991;43.566;27.820;2022-07-09T11:28:25;98314.72;;;33.11;59.41
9905;BME280;4991;43.566;27.820;2022-07-09T11:31:03;98310.81;;;34.03;57.71
9905;BME280;4991;43.566;27.820;2022-07-09T11:33:30;98314.25;;;34.07;54.29
9905;BME280;4991;43.566;27.820;2022-07-09T11:36:18;98324.34;;;33.32;52.43
9905;BME280;4991;43.566;27.820;2022-07-09T11:38:48;98327.59;;;33.12;52.21
9905;BME280;4991;43.566;27.820;2022-07-09T11:41:15;98316.44;;;33.75;53.21
9905;BME280;4991;43.566;27.820;2022-07-09T11:43:46;98317.97;;;33.76;53.94
9905;BME280;4991;43.566;27.820;2022-07-09T11:46:18;98312.94;;;33.89;52.82
9905;BME280;4991;43.566;27.820;2022-07-09T11:48:54;98310.31;;;33.10;56.17
9905;BME280;4991;43.566;27.820;2022-07-09T11:51:30;98321.75;;;33.55;55.15
9905;BME280;4991;43.566;27.820;2022-07-09T11:54:00;98295.88;;;33.93;54.29
9905;BME280;4991;43.566;27.820;2022-07-09T11:56:26;98293.94;;;34.44;51.77
9905;BME280;4991;43.566;27.820;2022-07-09T11:58:53;98297.44;;;33.76;51.44
9905;BME280;4991;43.566;27.820;2022-07-09T12:01:18;98303.47;;;33.38;53.19
9905;BME280;4991;43.566;27.820;2022-07-09T12:03:49;98287.00;;;34.36;52.33
9905;BME280;4991;43.566;27.820;2022-07-09T12:06:16;98288.19;;;34.03;52.49
9905;BME280;4991;43.566;27.820;2022-07-09T12:08:42;98283.09;;;34.34;50.39
9905;BME280;4991;43.566;27.820;2022-07-09T12:11:08;98297.94;;;33.92;51.10
9905;BME280;4991;43.566;27.820;2022-07-09T12:13:34;98290.97;;;33.84;50.73
9905;BME280;4991;43.566;27.820;2022-07-09T12:16:00;98287.72;;;34.04;49.86
9905;BME280;4991;43.566;27.820;2022-07-09T12:18:25;98285.69;;;33.96;49.07
9905;BME280;4991;43.566;27.820;2022-07-09T12:20:51;98275.38;;;34.34;48.87
9905;BME280;4991;43.566;27.820;2022-07-09T12:23:16;98267.81;;;34.58;48.76
9905;BME280;4991;43.566;27.820;2022-07-09T12:25:42;98272.88;;;34.36;48.56
9905;BME280;4991;43.566;27.820;2022-07-09T12:28:08;98273.06;;;34.74;49.38
9905;BME280;4991;43.566;27.820;2022-07-09T12:30:34;98260.06;;;34.08;50.27
9905;BME280;4991;43.566;27.820;2022-07-09T12:33:00;98257.22;;;34.68;48.68
9905;BME280;4991;43.566;27.820;2022-07-09T12:35:27;98261.97;;;33.84;49.72
9905;BME280;4991;43.566;27.820;2022-07-09T12:37:53;98259.13;;;33.84;51.24
9905;BME280;4991;43.566;27.820;2022-07-09T12:40:22;98261.44;;;34.72;48.49
9905;BME280;4991;43.566;27.820;2022-07-09T12:42:48;98252.81;;;35.56;46.82
9905;BME280;4991;43.566;27.820;2022-07-09T12:45:14;98243.13;;;35.86;45.48
9905;BME280;4991;43.566;27.820;2022-07-09T12:47:39;98235.03;;;36.22;45.46
9905;BME280;4991;43.566;27.820;2022-07-09T12:50:05;98241.25;;;36.85;45.37
9905;BME280;4991;43.566;27.820;2022-07-09T12:52:33;98244.97;;;37.25;41.74
9905;BME280;4991;43.566;27.820;2022-07-09T12:55:03;98243.59;;;35.84;43.98
9905;BME280;4991;43.566;27.820;2022-07-09T12:57:29;98246.31;;;34.52;45.91
9905;BME280;4991;43.566;27.820;2022-07-09T12:59:56;98234.19;;;33.82;47.91
9905;BME280;4991;43.566;27.820;2022-07-09T13:02:22;98238.09;;;34.12;47.39